Main page
METAR-TAF:

METAR-TAF

Airports :

Rabat, Morocco

Rabat–Salé Airport

latitude: 34-03N, longitude: 006-46W, elevation: 84 m

Current weather observation

The report was made 10 minutes ago, at 02:00 UTC
Calm wind
Temperature 13°C
Humidity 94%
Pressure 1018 hPa
Visibility: 6000 m
Scattered clouds at a height of 1500 ft

METAR: GMME 290200Z 00000KT 6000 SCT015 13/12 Q1018 NOSIG

Time: 02:10 (02:10 UTC)

Forecast

The report was made 3 hours and 10 minutes ago, at 23:00 UTC
Forecast valid from 29 at 00 UTC to 30 at 06 UTC
Wind 6 kt from the Northwest
Visibility: 8000 m
Broken clouds at a height of 1500 ft
Probability 40% :
Temporary
from 29 at 00 UTC to 29 at 06 UTC
Wind 4 kt from the Southeast
Visibility: 3000 m
Broken clouds at a height of 800 ft
mist
Becoming
from 29 at 09 UTC to 29 at 12 UTC
Wind 10 kt from the North
Visibility: 6000 m

TAF: GMME 282300Z 2900/3006 32006KT 8000 BKN015 PROB40 TEMPO 2900/2906 14004KT 3000 BR BKN008 BECMG 2909/2912 36010KT 6000 NSW NSC

Weather observations and forecasts of more than 4000 airports (METAR and TAF reports).

The available stations are represented by yellow and red dots on the map.

Hover mouse over dot to see the name of the station.

Then click to see weather observations and forecasts.

To change the map : click on the green buttons with a black cross to zoom in, on the green button with a dash to zoom out, or on the green arrows for adjacent maps.


METAR-TAF: